Chefornak, Alaska
Current Conditions -  °F | °C
As of 2:56 AM on Sunday 23 Nov 2014 (Local Time) from PAKI Reporting Station
Clear Clear  
Wind Chill: -3°   Ceiling: Unl
Heat Index: 14°   Visibility: 10mi
Dew Point:   Wind: 18mph
Humidity: 77%   Direction: 350°N
Pressure: 29.26"   Gusts: NA
Location:  60.16°N, 164.27°W
Report Text: PAKI 231156Z AUTO 35016KT 10SM CLR M10/M13 A2926 RMK AO2 TSNO 51011 T11001133 11094 21105 SLP912 $
Loading
Personal Weather Stations






























Interactive Weather Map New forecast layout! Learn more

10-Day Weather Forecast

Advertisements
Track Severe Weather on mobile